• Join FlightAware (Why Join?)
  • Login
  • US Flag 
07:33PM EDT


 

Airport Tracker/Info


-or-


 

Live Flight TrackerFlight Track Log ✈ KAP927 ✈ 29-Jun-2013 ✈ KOGS - KALB

Flight Track Log - Related Links

Times and Time Zones

All times are in EDT time to prevent confusion due to time zone crossing. See the KAP927 flight status page for this flight to view local times or setup timezone preferences in your user account.

Time Position Orientation Groundspeed Altitude Reporting Facility
EDT Latitude Longitude Course Direction KTS MPH feet Rate Location/Type
07:11AM 44.5386 -75.2914 148° Southeast 155 178 3,500  Level Boston Center
07:12AM 44.5061 -75.2608 146° Southeast 155 178 4,000 480 Climbing Boston Center
07:13AM 44.4753 -75.2331 147° Southeast 150 173 4,500 420 Climbing Boston Center
07:14AM 44.4406 -75.2053 150° Southeast 140 161 4,900 360 Climbing Boston Center
07:15AM 44.5222 -75.3231 149° Southeast  Level Estimated
07:15AM 44.4100 -75.1778 147° Southeast 140 161 5,300  Level Boston Center
07:16AM 44.4901 -75.2951 148° Southeast  Level FlightAware Approximate
07:16AM 44.3772 -75.1558 154° Southeast 135 155 5,700  Level Boston Center
07:17AM 44.3447 -75.1225 144° Southeast 135 155 6,100 420 Climbing Boston Center
07:18AM 44.3119 -75.0978 152° Southeast 135 155 6,600 420 Climbing Boston Center
07:19AM 44.2833 -75.0703 145° Southeast 135 155 7,000 120 Climbing Boston Center
07:20AM 44.2464 -75.0456 154° Southeast 140 161 6,900  Descending Boston Center
07:21AM 44.2097 -75.0092 145° Southeast 151 174 7,000  Climbing Boston Center
07:22AM 44.1731 -74.9672 141° Southeast 157 181 7,000  Level Boston Center
07:23AM 44.1322 -74.9364 152° Southeast 163 188 7,000  Level Boston Center
07:24AM 44.0911 -74.9058 152° Southeast 163 188 7,000  Level Boston Center
07:25AM 44.0500 -74.8722 150° Southeast 168 193 7,000  Level Boston Center
07:26AM 44.0031 -74.8300 147° Southeast 173 199 7,000  Level Boston Center
07:27AM 43.9600 -74.7994 153° Southeast 173 199 7,000  Level Boston Center
07:28AM 43.9231 -74.7664 147° Southeast 173 199 7,000  Level Boston Center
07:29AM 43.8861 -74.7361 149° Southeast 161 185 7,100  Climbing Boston Center
07:30AM 43.8494 -74.7058 149° Southeast 161 185 7,100 -60 Level Boston Center
07:31AM 43.8103 -74.6783 153° Southeast 161 185 7,000  Descending Boston Center
07:32AM 43.7733 -74.6456 147° Southeast 156 180 7,100  Climbing Boston Center
07:33AM 43.7447 -74.6214 149° Southeast 156 180 7,100 -60 Level Boston Center
07:34AM 43.7017 -74.5825 147° Southeast 156 180 7,000 -60 Descending Boston Center
07:35AM 43.6647 -74.5525 150° Southeast 156 180 7,000  Level Boston Center
07:36AM 43.6278 -74.5225 150° Southeast 156 180 7,100  Climbing Boston Center
07:37AM 43.5908 -74.4925 150° Southeast 156 180 7,100  Level Boston Center
07:38AM 43.5558 -74.4628 148° Southeast 156 180 7,100  Level Boston Center
07:39AM 43.5189 -74.4328 150° Southeast 156 180 7,100  Level Boston Center
07:40AM 43.4819 -74.4031 150° Southeast 156 180 7,100  Level Boston Center
07:41AM 43.4428 -74.3703 149° Southeast 156 180 7,100  Level Boston Center
07:41AM 43.4203 -74.3497 146° Southeast 158 182 7,100  Level Boston Center
07:43AM 43.3667 -74.3081 151° Southeast 156 180 7,100  Level Boston Center
07:44AM 43.3317 -74.2811 151° Southeast 155 178 7,100  Level Boston Center
07:45AM 43.2947 -74.2486 147° Southeast 155 178 7,100 -120 Level Boston Center
07:46AM 43.2597 -74.2164 146° Southeast 156 180 6,900 -300 Descending Boston Center
07:47AM 43.2208 -74.1725 141° Southeast 176 203 6,500 -480 Descending Boston Center
07:48AM 43.1800 -74.1258 140° Southeast 188 216 6,000 -600 Descending Boston Center
07:49AM 43.1431 -74.0764 136° Southeast 191 220 5,400 -600 Descending Boston Center
07:50AM 43.1042 -74.0297 139° Southeast 189 217 4,900 -600 Descending Boston Center
07:51AM 43.0653 -73.9833 139° Southeast 184 212 4,300 -660 Descending Boston Center
07:52AM 43.0264 -73.9311 136° Southeast 184 212 3,600 -600 Descending Boston Center
07:53AM 42.9872 -73.8847 139° Southeast 184 212 3,100 -540 Descending Boston Center
07:54AM 42.9481 -73.8469 145° Southeast 173 199 2,600 -540 Descending Boston Center
07:54AM 42.9481 -73.8469 145° Southeast 184 212 2,600 -300 Level Boston Center
07:55AM 42.9069 -73.8178 153° Southeast 171 197 2,300 -300 Descending Boston Center
07:56AM 42.8714 -73.8111 172° South 164 189 2,000 -420 Descending Boston Center
07:57AM 42.8172 -73.8100 179° South 162 186 1,500 -660 Descending Boston Center
07:58AM 42.7756 -73.8064 176° South 140 161 700 -840 Descending Boston Center
08:00AM 42.7491 -73.8020 160° South  Level Estimated
08:07AM 42.7491 -73.8020 160° South  Level Estimated
08:08AM 42.7491 -73.8020 160° South  Level Estimated
08:09AM 42.7491 -73.8020 160° South  Level Estimated